Time;durP1;ratioP1;P1;durP2;ratioP2;P2;SDS_P1;SDS_P2;PMS_P1;PMS_P2;Temp;Humidity;BMP_temperature;BMP_pressure;BME280_temperature;BME280_humidity;BME280_pressure;Samples;Min_cycle;Max_cycle;Signal;HPM_P1;HPM_P2
2023/04/04 00:01:51;;;;;;;11.05;5.37;;;;;;;0.13;70.48;100463.77;1395483;94;22468;-89
2023/04/04 00:04:17;;;;;;;19.55;5.70;;;;;;;0.16;70.47;100464.91;1393385;94;21422;-88
2023/04/04 00:06:44;;;;;;;8.93;4.22;;;;;;;0.15;70.55;100464.55;1391608;94;21377;-88
2023/04/04 00:09:11;;;;;;;9.88;4.87;;;;;;;0.11;70.68;100470.34;1388629;93;22345;-87
2023/04/04 00:11:40;;;;;;;10.78;4.58;;;;;;;0.11;70.75;100466.44;1388701;94;21435;-90
2023/04/04 00:14:07;;;;;;;9.13;4.05;;;;;;;0.07;70.87;100465.40;1394106;93;22287;-90
2023/04/04 00:16:34;;;;;;;9.18;3.77;;;;;;;0.09;70.91;100463.10;1389921;94;21355;-89
2023/04/04 00:19:00;;;;;;;9.78;4.22;;;;;;;0.05;70.75;100468.53;1391456;94;21689;-87
2023/04/04 00:21:26;;;;;;;8.78;3.70;;;;;;;0.10;70.73;100470.44;1397794;94;21450;-87
2023/04/04 00:23:53;;;;;;;10.38;5.17;;;;;;;0.07;70.59;100466.70;1395504;94;22271;-85
2023/04/04 00:26:20;;;;;;;8.50;4.45;;;;;;;0.08;71.20;100464.00;1393218;94;21421;-85
2023/04/04 00:28:46;;;;;;;6.90;3.87;;;;;;;0.05;70.76;100455.05;1398786;94;22302;-83
2023/04/04 00:31:13;;;;;;;5.90;3.37;;;;;;;0.05;70.92;100451.62;1386201;94;21451;-85
2023/04/04 00:33:39;;;;;;;19.40;5.72;;;;;;;0.01;70.92;100450.11;1386529;94;21385;-85
2023/04/04 00:36:05;;;;;;;8.05;3.72;;;;;;;0.01;71.34;100435.80;1400115;94;21407;-83
2023/04/04 00:38:31;;;;;;;7.25;4.37;;;;;;;0.00;70.80;100429.76;1406132;92;21488;-90
2023/04/04 00:40:58;;;;;;;9.05;4.80;;;;;;;0.02;71.08;100430.50;1392153;94;22287;-88
2023/04/04 00:43:26;;;;;;;9.45;4.25;;;;;;;-0.02;70.94;100425.92;1397065;94;21362;-87
2023/04/04 00:46:01;;;;;;;7.47;2.83;;;;;;;0.02;71.04;100417.95;1393393;94;21407;-83
2023/04/04 00:48:28;;;;;;;12.37;5.85;;;;;;;-0.04;70.79;100410.84;1393557;94;21598;-86
2023/04/04 00:50:55;;;;;;;9.73;5.20;;;;;;;-0.02;71.08;100409.01;1391460;94;21399;-85
2023/04/04 00:53:22;;;;;;;9.25;4.15;;;;;;;-0.02;70.88;100406.87;1395624;94;22405;-84
2023/04/04 00:55:48;;;;;;;12.68;4.62;;;;;;;-0.01;71.03;100413.28;1391434;94;21465;-86
2023/04/04 00:58:15;;;;;;;7.08;4.03;;;;;;;0.00;71.03;100398.53;1399379;94;21532;-87
2023/04/04 01:00:41;;;;;;;7.85;4.83;;;;;;;-0.03;70.66;100407.77;1394886;94;21594;-87
2023/04/04 01:03:11;;;;;;;11.10;2.92;;;;;;;-0.01;70.81;100383.36;1391081;94;21450;-86
2023/04/04 01:05:38;;;;;;;8.40;4.55;;;;;;;-0.06;70.90;100389.28;1394547;94;21384;-84
2023/04/04 01:08:05;;;;;;;10.85;4.17;;;;;;;-0.05;71.20;100380.55;1391733;94;21525;-89
2023/04/04 01:10:33;;;;;;;11.63;4.83;;;;;;;-0.03;70.44;100383.05;1397169;94;21705;-92
2023/04/04 01:13:00;;;;;;;6.80;3.45;;;;;;;-0.04;70.42;100382.69;1398763;94;21467;-90
2023/04/04 01:15:26;;;;;;;8.93;4.42;;;;;;;-0.01;70.44;100374.71;1392294;94;22420;-89
2023/04/04 01:18:00;;;;;;;7.62;4.12;;;;;;;0.00;70.38;100368.61;1389246;93;21637;-87
2023/04/04 01:20:30;;;;;;;35.73;5.75;;;;;;;0.00;70.60;100372.52;1401232;92;22352;-91
2023/04/04 01:22:58;;;;;;;8.63;4.35;;;;;;;0.02;70.19;100373.72;1398649;93;21406;-86
2023/04/04 01:25:31;;;;;;;8.58;3.83;;;;;;;0.05;70.12;100372.25;1370323;94;21485;-90
2023/04/04 01:27:59;;;;;;;10.28;3.92;;;;;;;0.03;70.17;100380.59;1400520;93;22320;-88
2023/04/04 01:30:33;;;;;;;9.00;5.10;;;;;;;0.03;69.86;100378.85;1395751;93;21442;-86
2023/04/04 01:33:13;;;;;;;10.98;4.67;;;;;;;0.06;69.83;100373.92;1390596;94;21667;-91
2023/04/04 01:35:51;;;;;;;7.50;3.95;;;;;;;0.05;70.07;100367.05;1388650;94;21443;-87
2023/04/04 01:38:29;;;;;;;8.48;4.60;;;;;;;0.03;69.90;100385.79;1395868;94;21487;-89
2023/04/04 01:41:03;;;;;;;10.80;4.37;;;;;;;0.05;69.97;100372.25;1402552;94;21503;-89
2023/04/04 01:43:31;;;;;;;11.93;4.22;;;;;;;0.04;69.76;100365.38;1391828;94;21595;-88
2023/04/04 01:46:00;;;;;;;11.08;4.60;;;;;;;0.05;69.93;100365.74;1397902;94;21436;-89
2023/04/04 01:48:27;;;;;;;10.18;4.62;;;;;;;0.01;69.79;100358.56;1395977;94;21540;-88
2023/04/04 01:50:55;;;;;;;9.20;4.20;;;;;;;0.03;69.66;100358.47;1401406;93;21481;-89
2023/04/04 01:53:21;;;;;;;11.18;5.17;;;;;;;0.01;69.66;100352.06;1394210;93;21496;-89
2023/04/04 01:55:48;;;;;;;9.80;4.55;;;;;;;0.01;69.75;100362.47;1394165;93;22512;-89
2023/04/04 01:58:14;;;;;;;8.60;4.28;;;;;;;-0.01;69.98;100356.03;1396546;94;22228;-90
2023/04/04 02:00:40;;;;;;;9.05;3.77;;;;;;;-0.03;69.86;100348.80;1395646;93;22545;-91
2023/04/04 02:03:07;;;;;;;8.35;4.42;;;;;;;-0.08;69.96;100346.89;1391352;94;21378;-85
2023/04/04 02:05:33;;;;;;;9.88;4.97;;;;;;;-0.09;69.83;100330.88;1397686;94;21362;-90
2023/04/04 02:07:59;;;;;;;13.78;4.85;;;;;;;-0.04;69.94;100327.58;1375671;94;21385;-80
2023/04/04 02:10:25;;;;;;;8.10;4.28;;;;;;;-0.08;69.92;100320.88;1412653;91;21511;-81
2023/04/04 02:12:54;;;;;;;9.58;3.85;;;;;;;-0.09;69.87;100321.77;1382370;94;21356;-80
2023/04/04 02:15:20;;;;;;;5.62;3.70;;;;;;;-0.09;70.11;100320.47;1397979;93;22424;-88
2023/04/04 02:17:48;;;;;;;9.00;4.85;;;;;;;-0.10;70.03;100322.70;1396916;94;21401;-91
2023/04/04 02:20:15;;;;;;;8.10;4.35;;;;;;;-0.12;70.05;100316.73;1395234;93;21399;-90
2023/04/04 02:22:41;;;;;;;11.05;4.05;;;;;;;-0.10;69.87;100317.97;1402192;94;21406;-88
2023/04/04 02:25:08;;;;;;;7.92;5.05;;;;;;;-0.12;70.16;100325.84;1391715;94;21577;-91
2023/04/04 02:27:35;;;;;;;13.35;3.83;;;;;;;-0.12;70.09;100310.23;1379130;94;21391;-87
2023/04/04 02:30:01;;;;;;;7.37;4.20;;;;;;;-0.14;70.23;100314.70;1397641;94;21421;-91
2023/04/04 02:32:27;;;;;;;8.38;3.98;;;;;;;-0.16;70.22;100311.33;1388672;94;21474;-87
2023/04/04 02:34:53;;;;;;;8.47;3.87;;;;;;;-0.17;70.38;100321.80;1395724;93;21610;-87
2023/04/04 02:37:22;;;;;;;11.00;4.85;;;;;;;-0.15;70.46;100322.11;1394583;94;21837;-88
2023/04/04 02:39:48;;;;;;;13.35;4.03;;;;;;;-0.15;70.51;100323.41;1395273;94;21474;-87
2023/04/04 02:42:15;;;;;;;9.30;3.77;;;;;;;-0.19;70.33;100327.57;1385465;93;21434;-88
2023/04/04 02:44:41;;;;;;;9.88;3.37;;;;;;;-0.22;70.25;100333.77;1395948;94;21296;-87
2023/04/04 02:47:07;;;;;;;8.30;3.80;;;;;;;-0.23;70.33;100325.60;1385417;94;21354;-86
2023/04/04 02:49:34;;;;;;;10.53;5.30;;;;;;;-0.24;70.26;100325.20;1394133;94;22308;-87
2023/04/04 02:52:00;;;;;;;12.55;4.47;;;;;;;-0.21;70.58;100332.84;1395989;94;22449;-87
2023/04/04 02:54:27;;;;;;;10.80;4.00;;;;;;;-0.23;70.59;100337.30;1388849;94;21466;-87
2023/04/04 02:56:53;;;;;;;8.40;4.12;;;;;;;-0.25;70.42;100338.67;1392379;94;21414;-88
2023/04/04 02:59:20;;;;;;;7.67;4.80;;;;;;;-0.26;70.51;100350.02;1376494;94;21932;-90
2023/04/04 03:01:46;;;;;;;8.35;5.00;;;;;;;-0.26;70.43;100354.34;1390512;93;21399;-88
2023/04/04 03:04:12;;;;;;;10.35;4.12;;;;;;;-0.25;70.61;100356.05;1394575;94;22236;-90
2023/04/04 03:06:42;;;;;;;8.80;3.95;;;;;;;-0.22;70.46;100357.19;1392848;94;21377;-86
2023/04/04 03:09:08;;;;;;;7.03;4.00;;;;;;;-0.22;70.30;100357.65;1402203;94;21542;-89
2023/04/04 03:11:34;;;;;;;7.45;4.30;;;;;;;-0.24;70.62;100340.81;1372622;94;21484;-84
2023/04/04 03:14:01;;;;;;;6.78;3.33;;;;;;;-0.28;70.62;100336.70;1396765;93;22367;-84
2023/04/04 03:16:28;;;;;;;11.57;4.67;;;;;;;-0.29;70.55;100336.30;1373736;94;22421;-85
2023/04/04 03:18:55;;;;;;;8.20;3.45;;;;;;;-0.28;70.51;100335.41;1388977;93;21569;-85
2023/04/04 03:21:21;;;;;;;8.30;4.80;;;;;;;-0.31;70.79;100335.09;1396223;93;22309;-84
2023/04/04 03:23:47;;;;;;;8.35;3.75;;;;;;;-0.29;70.60;100338.47;1390786;93;22405;-86
2023/04/04 03:26:14;;;;;;;9.03;5.22;;;;;;;-0.22;70.73;100342.05;1390414;94;21569;-84
2023/04/04 03:28:40;;;;;;;7.45;4.00;;;;;;;-0.28;70.92;100338.00;1390364;94;21519;-84
2023/04/04 03:31:06;;;;;;;7.90;4.10;;;;;;;-0.27;70.98;100321.47;1389280;93;21392;-87
2023/04/04 03:33:37;;;;;;;11.50;5.00;;;;;;;-0.28;70.93;100315.89;1390340;94;22458;-86
2023/04/04 03:36:12;;;;;;;11.35;3.47;;;;;;;-0.28;71.04;100312.83;1398142;94;21355;-86
2023/04/04 03:38:38;;;;;;;13.93;5.12;;;;;;;-0.33;71.16;100311.39;1398120;93;21606;-87
2023/04/04 03:41:06;;;;;;;10.43;4.58;;;;;;;-0.31;71.13;100313.46;1397571;93;21296;-87
2023/04/04 03:43:33;;;;;;;10.88;4.35;;;;;;;-0.31;71.30;100321.27;1393326;94;22912;-87
2023/04/04 03:46:04;;;;;;;8.30;3.50;;;;;;;-0.32;71.37;100318.27;1393027;94;21340;-88
2023/04/04 03:48:32;;;;;;;7.95;4.17;;;;;;;-0.34;70.89;100313.62;1400968;94;21459;-90
2023/04/04 03:50:59;;;;;;;12.33;4.15;;;;;;;-0.28;71.25;100318.50;1390032;93;22452;-90
2023/04/04 03:53:27;;;;;;;8.20;4.20;;;;;;;-0.30;71.46;100313.83;1391542;94;22280;-92
2023/04/04 03:55:55;;;;;;;14.18;4.50;;;;;;;-0.34;71.15;100305.82;1394782;93;22258;-91
2023/04/04 03:58:23;;;;;;;8.43;3.70;;;;;;;-0.35;71.08;100311.92;1393758;93;21355;-92
2023/04/04 04:00:49;;;;;;;8.63;3.25;;;;;;;-0.32;71.28;100314.36;1399425;94;22353;-89
2023/04/04 04:03:15;;;;;;;8.40;3.58;;;;;;;-0.34;71.22;100305.82;1367363;94;21571;-87
2023/04/04 04:05:41;;;;;;;6.08;3.65;;;;;;;-0.32;71.33;100309.99;1392205;94;21525;-91
2023/04/04 04:08:08;;;;;;;10.78;3.83;;;;;;;-0.32;71.27;100316.49;1392266;94;21488;-90
2023/04/04 04:10:34;;;;;;;10.30;4.53;;;;;;;-0.32;70.99;100309.16;1392212;94;21457;-91
2023/04/04 04:13:00;;;;;;;6.75;3.42;;;;;;;-0.29;71.36;100302.49;1394655;94;21429;-91
2023/04/04 04:15:26;;;;;;;9.28;3.47;;;;;;;-0.30;70.78;100309.92;1390573;94;21914;-88
2023/04/04 04:17:52;;;;;;;6.10;3.72;;;;;;;-0.27;71.08;100307.16;1400171;94;21473;-90
2023/04/04 04:20:18;;;;;;;7.58;3.37;;;;;;;-0.29;70.99;100299.89;1393054;93;21459;-88
2023/04/04 04:22:46;;;;;;;6.33;4.15;;;;;;;-0.29;70.88;100308.56;1395476;94;21384;-89
2023/04/04 04:25:15;;;;;;;9.73;3.52;;;;;;;-0.26;70.99;100304.92;1405498;94;21668;-89
2023/04/04 04:27:42;;;;;;;7.87;3.77;;;;;;;-0.22;70.94;100316.03;1399613;94;21370;-89
2023/04/04 04:30:08;;;;;;;13.75;3.58;;;;;;;-0.23;70.39;100313.90;1393459;93;22391;-87
2023/04/04 04:32:35;;;;;;;10.72;4.10;;;;;;;-0.18;70.62;100311.87;1400076;94;21385;-86
2023/04/04 04:35:01;;;;;;;9.33;3.30;;;;;;;-0.16;70.32;100310.03;1400211;94;22514;-88
2023/04/04 04:37:27;;;;;;;16.27;4.92;;;;;;;-0.16;70.20;100319.14;1392060;94;21304;-87
2023/04/04 04:39:53;;;;;;;7.95;3.12;;;;;;;-0.13;70.49;100320.27;1399037;94;21459;-89
2023/04/04 04:42:20;;;;;;;10.00;3.58;;;;;;;-0.10;69.95;100322.70;1389525;94;21420;-88
2023/04/04 04:44:46;;;;;;;7.85;4.22;;;;;;;-0.08;69.71;100329.98;1388568;94;22516;-88
2023/04/04 04:47:12;;;;;;;6.22;3.45;;;;;;;-0.05;69.83;100335.48;1398433;94;21407;-86
2023/04/04 04:49:38;;;;;;;6.37;3.72;;;;;;;-0.06;69.65;100334.65;1392895;93;21495;-87
2023/04/04 04:52:04;;;;;;;5.30;3.37;;;;;;;0.01;69.16;100320.00;1372182;94;21421;-87
2023/04/04 04:54:31;;;;;;;5.92;2.87;;;;;;;0.03;69.27;100332.02;1376316;94;21666;-88
2023/04/04 04:56:59;;;;;;;4.78;2.70;;;;;;;0.06;68.95;100325.77;1396126;94;21496;-85
2023/04/04 04:59:25;;;;;;;7.55;3.85;;;;;;;0.09;68.72;100330.38;1393661;93;21384;-87
2023/04/04 05:01:52;;;;;;;14.25;4.22;;;;;;;0.14;68.59;100325.73;1393055;94;21552;-88
2023/04/04 05:04:18;;;;;;;13.50;3.70;;;;;;;0.24;68.49;100331.30;1398283;94;21533;-86
2023/04/04 05:06:44;;;;;;;4.00;2.58;;;;;;;0.25;67.89;100326.92;1390081;94;21406;-91
2023/04/04 05:09:11;;;;;;;6.63;3.07;;;;;;;0.27;67.37;100328.52;1393596;94;21414;-83
2023/04/04 05:11:37;;;;;;;11.25;3.47;;;;;;;0.31;67.38;100330.02;1389104;93;21447;-86
2023/04/04 05:14:05;;;;;;;14.43;3.17;;;;;;;0.40;67.78;100333.45;1390569;93;22834;-89
2023/04/04 05:16:32;;;;;;;7.10;2.70;;;;;;;0.43;67.40;100338.48;1397135;94;21325;-87
2023/04/04 05:18:58;;;;;;;4.15;3.15;;;;;;;0.46;67.21;100333.53;1396210;94;21554;-88
2023/04/04 05:21:24;;;;;;;7.95;2.83;;;;;;;0.51;66.72;100350.22;1387957;94;21415;-88
2023/04/04 05:23:51;;;;;;;9.08;2.85;;;;;;;0.55;66.06;100336.12;1394483;93;21377;-87
2023/04/04 05:26:17;;;;;;;8.20;4.00;;;;;;;0.64;66.13;100334.30;1393017;94;21370;-86
2023/04/04 05:28:43;;;;;;;6.40;3.13;;;;;;;0.64;65.66;100332.99;1372353;94;21814;-85
2023/04/04 05:31:09;;;;;;;8.80;4.12;;;;;;;0.74;66.02;100335.44;1391068;94;22217;-86
2023/04/04 05:33:36;;;;;;;16.43;7.47;;;;;;;0.76;65.76;100330.98;1397399;94;21517;-92
2023/04/04 05:36:03;;;;;;;12.53;3.83;;;;;;;0.79;65.75;100327.37;1394159;94;21607;-84
2023/04/04 05:38:30;;;;;;;9.47;3.97;;;;;;;0.79;64.99;100334.72;1395116;93;21582;-91
2023/04/04 05:40:56;;;;;;;7.93;3.40;;;;;;;0.81;65.06;100324.22;1389083;93;21731;-89
2023/04/04 05:43:22;;;;;;;6.43;2.43;;;;;;;0.87;64.94;100328.61;1387569;93;22209;-87
2023/04/04 05:45:48;;;;;;;7.60;2.90;;;;;;;0.90;65.10;100324.52;1398624;94;21798;-88
2023/04/04 05:48:14;;;;;;;5.87;3.30;;;;;;;0.95;64.20;100324.70;1403456;94;21806;-89
2023/04/04 05:50:45;;;;;;;6.40;3.37;;;;;;;0.98;64.11;100322.78;1401330;94;22103;-92
2023/04/04 05:53:14;;;;;;;9.10;3.97;;;;;;;1.01;64.06;100322.61;1399887;94;21627;-89
2023/04/04 05:55:40;;;;;;;6.73;3.13;;;;;;;1.08;64.59;100329.13;1395236;94;21489;-90
2023/04/04 05:58:07;;;;;;;5.57;2.33;;;;;;;1.12;64.01;100324.56;1394662;94;21755;-89
2023/04/04 06:00:34;;;;;;;4.87;2.73;;;;;;;1.09;63.15;100324.75;1397417;94;21577;-87
2023/04/04 06:03:01;;;;;;;5.53;2.97;;;;;;;1.12;63.13;100338.90;1394529;94;21921;-88
2023/04/04 06:05:27;;;;;;;8.17;3.10;;;;;;;1.16;63.04;100328.69;1395232;93;21789;-89
2023/04/04 06:07:53;;;;;;;5.07;2.60;;;;;;;1.23;62.99;100329.98;1399271;94;21631;-88
2023/04/04 06:10:20;;;;;;;6.87;3.13;;;;;;;1.54;67.45;100329.48;1390336;94;21795;-84
2023/04/04 06:12:46;;;;;;;8.13;3.50;;;;;;;1.65;64.30;100325.76;1391020;93;22731;-83
2023/04/04 06:15:13;;;;;;;11.27;3.73;;;;;;;1.73;63.28;100324.83;1397932;93;21638;-85
2023/04/04 06:17:39;;;;;;;5.30;2.87;;;;;;;1.71;61.88;100324.08;1387929;93;21680;-84
2023/04/04 06:20:07;;;;;;;3.33;2.40;;;;;;;1.61;62.17;100320.33;1389654;93;21540;-84
2023/04/04 06:22:33;;;;;;;5.13;1.93;;;;;;;1.60;61.73;100317.36;1393143;94;21648;-90
2023/04/04 06:25:00;;;;;;;5.73;2.40;;;;;;;1.60;62.11;100317.36;1386091;93;22695;-82
2023/04/04 06:27:28;;;;;;;9.00;2.87;;;;;;;1.70;62.56;100315.89;1391235;94;21637;-87
2023/04/04 06:29:54;;;;;;;13.07;3.47;;;;;;;1.74;61.83;100308.23;1324449;94;21740;-88
2023/04/04 06:32:21;;;;;;;5.03;2.50;;;;;;;1.78;61.68;100313.66;1342093;94;22670;-88
2023/04/04 06:34:47;;;;;;;16.27;3.67;;;;;;;1.78;60.79;100307.12;1325354;93;21605;-79
2023/04/04 06:37:13;;;;;;;5.13;2.60;;;;;;;1.90;61.19;100303.36;1390929;93;21656;-81
2023/04/04 06:39:40;;;;;;;5.87;2.80;;;;;;;1.78;60.12;100298.00;1392544;92;21578;-81
2023/04/04 06:42:06;;;;;;;5.53;2.60;;;;;;;1.83;60.53;100301.61;1402241;92;21657;-80
2023/04/04 06:44:32;;;;;;;8.00;2.87;;;;;;;1.92;60.71;100291.06;1398581;91;21789;-87
2023/04/04 06:46:58;;;;;;;5.33;2.47;;;;;;;2.00;60.75;100292.73;1371165;94;21713;-90
2023/04/04 06:49:24;;;;;;;7.63;3.03;;;;;;;1.90;59.77;100287.26;1395033;93;21805;-87
2023/04/04 06:51:51;;;;;;;6.93;3.40;;;;;;;1.94;59.40;100298.34;1395841;94;22494;-87
2023/04/04 06:54:17;;;;;;;7.23;2.17;;;;;;;1.89;59.33;100292.56;1389176;94;21513;-88
2023/04/04 06:56:44;;;;;;;4.83;2.50;;;;;;;1.98;59.47;100301.12;1395746;94;21601;-88
2023/04/04 06:59:13;;;;;;;5.63;2.63;;;;;;;1.98;58.89;100286.76;1389431;93;21666;-88
2023/04/04 07:01:39;;;;;;;5.10;2.80;;;;;;;2.00;58.89;100298.78;1395622;93;21938;-84
2023/04/04 07:04:06;;;;;;;7.43;2.80;;;;;;;2.01;58.32;100295.70;1393345;94;22499;-90
2023/04/04 07:06:32;;;;;;;7.10;2.93;;;;;;;2.17;59.04;100299.03;1371099;94;21685;-90
2023/04/04 07:08:58;;;;;;;11.87;2.80;;;;;;;2.19;58.44;100295.03;1398192;94;21715;-88
2023/04/04 07:11:25;;;;;;;9.90;3.10;;;;;;;2.21;58.14;100300.50;1390020;93;22487;-90
2023/04/04 07:13:52;;;;;;;8.57;3.03;;;;;;;2.34;58.18;100294.52;1396955;93;22662;-91
2023/04/04 07:16:18;;;;;;;4.67;3.00;;;;;;;2.30;58.34;100295.64;1393653;94;21673;-85
2023/04/04 07:18:44;;;;;;;12.60;4.73;;;;;;;2.46;58.18;100298.48;1373318;94;21673;-90
2023/04/04 07:21:10;;;;;;;7.10;3.50;;;;;;;2.65;58.33;100296.00;1396040;93;22562;-87
2023/04/04 07:23:36;;;;;;;10.63;3.07;;;;;;;2.67;57.65;100305.38;1373908;94;22469;-89
2023/04/04 07:26:03;;;;;;;15.63;2.37;;;;;;;2.71;57.60;100307.35;1372925;94;21798;-90
2023/04/04 07:28:29;;;;;;;5.30;2.50;;;;;;;2.67;56.69;100305.38;1396572;93;22077;-86
2023/04/04 07:31:03;;;;;;;8.90;2.70;;;;;;;2.80;57.19;100313.75;1385381;94;21700;-91
2023/04/04 07:33:30;;;;;;;5.07;2.00;;;;;;;2.79;57.01;100313.36;1392555;93;22594;-90
2023/04/04 07:35:56;;;;;;;5.87;2.40;;;;;;;2.81;57.01;100312.80;1376774;94;21711;-90
2023/04/04 07:38:22;;;;;;;6.87;2.57;;;;;;;2.83;56.26;100310.94;1396586;93;21600;-91
2023/04/04 07:40:49;;;;;;;4.07;2.40;;;;;;;2.86;56.36;100312.03;1392663;93;21890;-89
2023/04/04 07:43:16;;;;;;;6.07;2.80;;;;;;;2.83;56.03;100314.86;1390047;94;21742;-90
2023/04/04 07:45:42;;;;;;;9.87;2.13;;;;;;;2.96;56.91;100296.56;1394273;94;21863;-90
2023/04/04 07:48:08;;;;;;;12.90;3.17;;;;;;;3.00;56.44;100311.97;1387951;93;21714;-86
2023/04/04 07:50:34;;;;;;;4.70;2.53;;;;;;;3.02;55.55;100306.61;1398774;93;21722;-89
2023/04/04 07:53:00;;;;;;;5.80;3.07;;;;;;;3.00;55.39;100308.52;1389236;94;21631;-86
2023/04/04 07:55:27;;;;;;;5.47;2.67;;;;;;;3.07;54.70;100321.06;1396087;93;21772;-87
2023/04/04 07:57:54;;;;;;;5.97;2.60;;;;;;;3.07;54.70;100321.06;1396596;93;21692;-88
2023/04/04 08:00:24;;;;;;;9.50;3.23;;;;;;;3.10;54.82;100310.39;1393661;94;21808;-90
2023/04/04 08:02:57;;;;;;;9.97;2.97;;;;;;;3.20;55.03;100312.41;1392357;94;22126;-90
2023/04/04 08:05:24;;;;;;;9.43;3.03;;;;;;;3.37;54.60;100318.66;1470223;94;21734;-87
2023/04/04 08:07:50;;;;;;;11.13;2.93;;;;;;;3.37;54.60;100318.66;1331423;93;22683;-83
2023/04/04 08:10:17;;;;;;;10.13;2.90;;;;;;;3.52;54.46;100305.82;1326196;94;21809;-84
2023/04/04 08:12:44;;;;;;;13.43;3.43;;;;;;;3.73;53.18;100303.97;1325853;94;21849;-89
2023/04/04 08:15:11;;;;;;;9.57;2.60;;;;;;;3.73;53.18;100303.97;1326301;94;21887;-89
2023/04/04 08:17:42;;;;;;;23.83;6.30;;;;;;;3.85;53.39;100307.03;1326145;94;22077;-87
2023/04/04 08:20:09;;;;;;;;;;;;;;;4.05;53.03;100289.91;1395902;94;22171;-88
2023/04/04 08:22:35;;;;;;;6.00;2.50;;;;;;;4.26;52.50;100311.14;1379883;94;20366;-86
2023/04/04 08:25:02;;;;;;;11.20;3.47;;;;;;;4.21;52.34;100306.22;1394077;94;23066;-89
2023/04/04 08:27:28;;;;;;;9.73;2.90;;;;;;;4.18;51.68;100301.69;1398361;93;23193;-86
2023/04/04 08:29:55;;;;;;;8.00;2.67;;;;;;;4.14;51.46;100302.34;1391901;94;22202;-88
2023/04/04 08:32:23;;;;;;;9.43;1.90;;;;;;;4.12;50.93;100304.74;1393349;93;22098;-90
2023/04/04 08:34:50;;;;;;;8.90;2.73;;;;;;;4.20;51.56;100303.70;1399695;93;22144;-89
2023/04/04 08:37:17;;;;;;;8.23;2.50;;;;;;;4.41;50.55;100302.17;1370457;94;22091;-90
2023/04/04 08:39:43;;;;;;;6.30;2.70;;;;;;;4.24;50.65;100298.14;1394456;94;22978;-90
2023/04/04 08:42:11;;;;;;;12.73;1.90;;;;;;;4.23;51.20;100306.09;1396469;94;22272;-89
2023/04/04 08:44:40;;;;;;;5.20;2.23;;;;;;;4.20;50.24;100287.98;1394972;93;23112;-88
2023/04/04 08:47:09;;;;;;;12.20;2.43;;;;;;;4.05;49.75;100299.08;1374220;94;23082;-90
2023/04/04 08:49:40;;;;;;;5.47;2.20;;;;;;;4.31;50.77;100288.05;1323783;94;22144;-90
2023/04/04 08:52:10;;;;;;;10.05;3.55;;;;;;;4.36;50.07;100289.87;1470256;94;22033;-88
2023/04/04 08:54:39;;;;;;;7.47;2.27;;;;;;;4.37;49.89;100284.15;1322757;93;21289;-89
2023/04/04 08:57:07;;;;;;;9.83;2.30;;;;;;;4.52;49.75;100289.60;1398606;94;22186;-88
2023/04/04 08:59:33;;;;;;;5.47;2.53;;;;;;;4.39;48.97;100284.41;1325540;94;22878;-84
2023/04/04 09:06:48;;;;;;;4.63;2.03;;;;;;;4.45;49.27;100287.88;1470424;94;21244;-91
2023/04/04 09:09:16;;;;;;;10.07;2.43;;;;;;;4.49;49.42;100275.41;1326780;93;22142;-89
2023/04/04 09:11:45;;;;;;;3.37;1.53;;;;;;;4.50;49.40;100281.84;1325179;94;22018;-92
2023/04/04 09:14:11;;;;;;;3.43;1.90;;;;;;;4.51;48.74;100285.29;1306075;95;22046;-86
2023/04/04 09:16:37;;;;;;;6.30;2.17;;;;;;;4.59;49.05;100287.36;1350749;94;22215;-93
2023/04/04 09:19:03;;;;;;;7.57;2.53;;;;;;;4.51;48.24;100292.67;1393010;94;22335;-92
2023/04/04 09:21:32;;;;;;;8.37;2.27;;;;;;;4.77;48.78;100299.58;1392942;94;22232;-87
2023/04/04 09:24:00;;;;;;;3.40;2.10;;;;;;;4.78;48.82;100291.62;1393450;94;21503;-88
2023/04/04 09:26:26;;;;;;;3.50;1.60;;;;;;;4.76;48.47;100267.28;1325038;94;21281;-88
2023/04/04 09:28:53;;;;;;;4.97;1.83;;;;;;;4.91;48.63;100292.36;1327874;93;21452;-85
2023/04/04 09:31:20;;;;;;;13.90;2.43;;;;;;;5.15;49.14;100303.27;1325133;94;21244;-86
2023/04/04 09:33:49;;;;;;;3.00;1.80;;;;;;;5.20;48.34;100301.97;1313864;95;21394;-84
2023/04/04 09:36:17;;;;;;;10.77;3.03;;;;;;;5.17;47.70;100299.58;1324088;93;21340;-91
2023/04/04 09:38:44;;;;;;;9.33;2.40;;;;;;;5.29;48.91;100308.30;1396238;94;21548;-90
2023/04/04 09:41:14;;;;;;;18.10;2.73;;;;;;;5.32;48.09;100297.61;1396965;94;21348;-92
2023/04/04 09:43:46;;;;;;;8.40;1.90;;;;;;;5.46;48.33;100287.81;1393962;94;21443;-88
2023/04/04 09:46:12;;;;;;;5.27;2.53;;;;;;;5.35;47.97;100293.43;1387874;94;21430;-90
2023/04/04 09:48:38;;;;;;;4.93;1.60;;;;;;;5.33;48.05;100295.33;1394821;93;21428;-91
2023/04/04 09:51:08;;;;;;;4.33;2.33;;;;;;;5.07;48.20;100299.92;1388323;94;21414;-90
2023/04/04 09:53:40;;;;;;;7.43;2.30;;;;;;;5.03;48.62;100304.20;1397127;94;22278;-89
2023/04/04 09:56:07;;;;;;;8.27;2.23;;;;;;;5.06;48.98;100294.78;1400401;94;21545;-88
2023/04/04 09:58:36;;;;;;;8.93;3.23;;;;;;;4.94;48.36;100297.38;1368895;94;22344;-87
2023/04/04 10:01:08;;;;;;;8.13;2.63;;;;;;;5.04;48.61;100291.46;1407620;94;21525;-84
2023/04/04 10:03:40;;;;;;;10.00;2.57;;;;;;;5.18;48.27;100310.94;1408737;94;21569;-87
2023/04/04 10:06:09;;;;;;;9.73;2.87;;;;;;;5.30;48.63;100302.61;1392102;93;22493;-91
2023/04/04 10:08:40;;;;;;;7.97;2.03;;;;;;;5.20;48.51;100305.07;1386920;94;21554;-89
2023/04/04 10:11:08;;;;;;;11.50;2.23;;;;;;;5.11;48.22;100300.52;1396369;94;21444;-86
2023/04/04 10:13:39;;;;;;;6.00;2.50;;;;;;;5.10;48.80;100314.13;1391448;93;21391;-88
2023/04/04 10:16:05;;;;;;;10.60;2.97;;;;;;;5.06;48.22;100313.14;1383934;94;21584;-90
2023/04/04 10:18:38;;;;;;;10.47;2.10;;;;;;;4.79;47.41;100311.63;1395790;94;21458;-88
2023/04/04 10:21:04;;;;;;;11.93;2.00;;;;;;;4.74;47.95;100301.95;1468923;94;21400;-85
2023/04/04 10:23:32;;;;;;;3.13;2.10;;;;;;;4.93;48.93;100316.69;1323148;94;21529;-90
2023/04/04 10:25:59;;;;;;;3.53;1.67;;;;;;;4.84;48.39;100308.69;1329751;94;21334;-85
2023/04/04 10:28:26;;;;;;;4.07;2.33;;;;;;;4.91;49.11;100317.75;1323700;94;21304;-88
2023/04/04 10:31:23;;;;;;;5.00;1.97;;;;;;;4.96;48.96;100305.14;1325264;93;21370;-89
2023/04/04 10:34:21;;;;;;;4.23;2.20;;;;;;;4.97;48.28;100309.42;1470045;93;22022;-88
2023/04/04 10:37:07;;;;;;;12.23;3.70;;;;;;;5.06;48.25;100309.13;1461078;94;22242;-88
2023/04/04 10:40:09;;;;;;;5.00;2.40;;;;;;;5.13;48.21;100309.13;1373406;94;21748;-87
2023/04/04 10:42:43;;;;;;;3.93;2.30;;;;;;;5.07;47.80;100301.72;1390651;93;21503;-85
2023/04/04 10:45:12;;;;;;;5.70;2.60;;;;;;;4.97;47.63;100308.94;1393945;93;21354;-88
2023/04/04 10:47:39;;;;;;;7.77;3.27;;;;;;;5.19;48.56;100313.91;1373938;94;22323;-88
2023/04/04 10:50:09;;;;;;;11.63;3.33;;;;;;;5.16;48.22;100309.72;1395639;93;21458;-89
2023/04/04 10:52:37;;;;;;;8.60;3.17;;;;;;;5.28;48.13;100311.89;1328461;94;21304;-89
2023/04/04 10:55:07;;;;;;;4.60;2.87;;;;;;;5.30;48.02;100320.49;1292058;97;21437;-86
2023/04/04 10:57:38;;;;;;;7.60;2.45;;;;;;;5.23;48.09;100319.75;1344391;92;22288;-89
2023/04/04 11:00:17;;;;;;;3.52;2.37;;;;;;;5.31;48.37;100322.64;1322821;97;21481;-92
2023/04/04 11:02:51;;;;;;;9.30;2.53;;;;;;;5.31;47.04;100318.22;1324524;94;21407;-86
2023/04/04 11:05:46;;;;;;;10.97;4.80;;;;;;;5.27;47.28;100316.79;1449311;94;21548;-85
2023/04/04 11:08:12;;;;;;;31.17;15.20;;;;;;;5.38;48.28;100323.83;1392601;94;21621;-90
2023/04/04 11:10:42;;;;;;;6.40;2.80;;;;;;;5.32;47.66;100300.23;1416248;92;21471;-87
2023/04/04 11:13:17;;;;;;;6.90;2.30;;;;;;;5.20;47.21;100318.19;1414767;92;22400;-86
2023/04/04 11:15:59;;;;;;;7.40;2.00;;;;;;;5.17;47.81;100315.80;1470087;94;21312;-83
2023/04/04 11:18:44;;;;;;;5.87;2.40;;;;;;;5.19;47.69;100311.28;1464643;94;21318;-89
2023/04/04 11:21:22;;;;;;;10.70;2.40;;;;;;;5.39;48.47;100315.85;1450316;93;22249;-88
2023/04/04 11:24:05;;;;;;;6.60;2.07;;;;;;;5.28;47.42;100314.52;1389172;94;21558;-88
2023/04/04 11:26:34;;;;;;;2.43;1.80;;;;;;;5.22;47.83;100315.47;1392182;94;21614;-86
2023/04/04 11:29:03;;;;;;;5.93;1.90;;;;;;;5.16;47.80;100314.14;1400955;93;21602;-87
2023/04/04 11:31:44;;;;;;;3.17;1.57;;;;;;;5.31;47.09;100307.72;1394751;93;22455;-88
2023/04/04 11:34:12;;;;;;;9.90;2.65;;;;;;;5.34;46.78;100312.73;1391681;94;21614;-87
2023/04/04 11:36:44;;;;;;;5.50;3.33;;;;;;;5.63;47.88;100309.66;1394370;93;21407;-91
2023/04/04 11:39:26;;;;;;;3.30;2.10;;;;;;;5.80;46.87;100311.81;1394415;94;21378;-89